Du har inga inställningar för hoppväder.nu

Hoppväder.nu

Senast uppdaterat 14:03

UTC-tid

2024-03-01 kl. 13:03


Sol och måne

Solen går upp 6:53 och går ner 17:38 (beräknade cirkatider)
Nästa fullmåne blir om 24 dagar (2024-03-25)

METAR

ESMK (Everöd)
(13 minuter sedan)
ESMK 011250Z 13007KT 2000 BR OVC003 06/06 Q1008=



ESMS (Malmö)
(13 minuter sedan)
ESMS 011250Z 15010KT 0400 R17/0800N R35/0750N FG OVC002 06/06 Q1006=



ESMX (Växjö)
(13 minuter sedan)
ESMX 011250Z 14010KT 2500 BR OVC003 07/07 Q1008=



ESDF (Ronneby)
(13 minuter sedan)
ESDF 011250Z 14007KT 5000 OVC006 07/07 Q1009=



EKRN (Rønne, Bornholm)
(43 minuter sedan)
EKRN 011220Z AUTO 12009KT 4300 BR BKN017/// 08/06 Q1008=



TAF

ESMK (Everöd)
(113 minuter sedan)
ESMK 011110Z 0112/0116 14008KT 1200 BR BKN003 TEMPO 0112/0116 6000 NSW BKN008=



ESMS (Malmö)
(61 minuter sedan)
ESMS AMD 011202Z 0112/0212 13008KT 0400 FG BKN002 TEMPO 0112/0114 6000 NSW BKN006 BECMG 0114/0116 9000 NSW SCT004 TEMPO 0116/0203 4000 BR BKN008 TEMPO 0203/0212 2000 RA BR BKN004=



ESMX (Växjö)
(93 minuter sedan)
ESMX 011130Z 0112/0116 13008KT 2500 BR BKN003 TEMPO 0112/0116 0100 FG VV001=



ESDF (Ronneby)
(93 minuter sedan)
ESDF 011130Z 0112/0121 14007KT 2800 BR BKN008 TEMPO 0112/0116 5000 BKN003 TEMPO 0116/0121 BKN016=



EKRN (Rønne, Bornholm)
(112 minuter sedan)
EKRN 011111Z 0112/0121 12012KT 6000 SCT020 TEMPO 0112/0121 2500 BR BKN004=





Kodnycklar till TAF och METAR






LHP

(Everöd är område se11e i Hela Område 1)

Översikt

ÖVERSIKT FÖR OMRÅDE se1 UTFÄRDAD 011245

GÄLLANDE DEN 1 MARS 2024 MELLAN 13 OCH 21 UTC


Väderöversikt
Se väderöversikt för område se2 + se3
Sikt under 5 kilometer eller molnbas under 1000 fot
13-17UTC: I hela området

Måttlig eller svår isbildning
Väntas inte förekomma under perioden
Måttlig eller svår turbulens
Väntas inte förekomma under perioden


Hela Område 1

PROGNOS FÖR OMRÅDE se11 UTFÄRDAD 011245
GÄLLANDE DEN 1 MARS 2024 MELLAN 13 OCH 21 UTC


Måttlig eller svår turbulens
13-21UTC: I hela området: Väntas inte förekomma under perioden

Måttlig eller svår isbildning
13-21UTC: I hela området: Väntas inte förekomma under perioden

Sikt/Väder/Moln
13-15UTC: Område se11f: Sikt 3km - 5km i dis, lokalt <0.8km i dimma. Molnbas <500ft, lokalt 1000ft - 1500ft.
Område se11i,se11h,se11g: Sikt <0.8km - 8km i dis, dimma. Molnbas <500ft - >4000ft.

13-17UTC: Område se11a,se11e,se11d,se11c,se11b: Sikt 3km - 5km i dis, lokalt <0.8km i dimma. Molnbas <500ft, lokalt 1000ft - 1500ft.

15-19UTC: Område se11f: Sikt <0.8km - 8km i dis, dimma. Molnbas <500ft - 2000ft.
Område se11i: Sikt 5km - 8km, lokalt 1.5km - 3km i dis. Molnbas 1500ft - 2000ft, lokalt 500ft - 1000ft.

15-21UTC: Område se11h,se11g: Sikt <0.8km - 8km i dis, dimma. Molnbas <500ft - 2000ft.

17-19UTC: Område se11a,se11b: Sikt 3km - 5km i dis, lokalt <0.8km i dimma. Molnbas 1000ft - 1500ft, lokalt <500ft.

17-21UTC: Område se11e,se11d: Sikt 3km - 5km i dis, lokalt <0.8km i dimma. Molnbas 1000ft - 1500ft, lokalt <500ft.
Område se11c: Sikt <0.8km - 8km i dis, dimma. Molnbas <500ft - 2000ft.

19-21UTC: Område se11f: Sikt 3km - 5km i dis, lokalt <0.8km i dimma. Molnbas 1000ft - 1500ft, lokalt <500ft.
Område se11a,se11b,se11i: Sikt <0.8km - 8km i dis, dimma. Molnbas <500ft - 2000ft.


Molnöversida
13-15UTC: I hela området: Molnöversida FL050.
15-17UTC: I hela området: Molnöversida FL055.
17-21UTC: I hela området: Molnöversida FL060.

CB/TCU Moln
13-21UTC: I hela området: Väntas inte förekomma under perioden

Nollgradersisoterm
13-21UTC: I hela området: Noll grader FL050 - FL075.

Vind vid marken
13-15UTC: Område se11i: SO/4-15 knop, byar upp till 23 knop.
Område se11h: O-SO/1-13 knop, byar upp till 17 knop.
Område se11b: SO-S/9-17 knop, byar upp till 22 knop.
Område se11d: SO/3-14 knop, byar upp till 22 knop.
Område se11c: SO-S/7-13 knop, byar upp till 18 knop.
Område se11g: SO/6-12 knop.
Område se11f: SO-S/2-10 knop, byar upp till 18 knop.
Område se11a: SO/5-17 knop, byar upp till 22 knop.
Område se11e: SO/3-8 knop, byar upp till 17 knop.

15-17UTC: Område se11a: SO/5-20 knop, byar upp till 24 knop.
Område se11c: SO-S/6-12 knop, byar upp till 17 knop.
Område se11i: SO/4-12 knop, byar upp till 18 knop.
Område se11g: SO/5-11 knop.
Område se11d: SO-S/4-14 knop, byar upp till 22 knop.
Område se11b: SO-S/8-17 knop, byar upp till 22 knop.
Område se11e: SO/2-7 knop, byar upp till 16 knop.
Område se11h: SO/1-13 knop, byar upp till 17 knop.
Område se11f: SO-S/1-10 knop, byar upp till 16 knop.

17-19UTC: Område se11b: SO-S/7-17 knop, byar upp till 21 knop.
Område se11i: SO/2-11 knop, byar upp till 14 knop.
Område se11g: SO/3-11 knop.
Område se11a: SO-S/4-18 knop, byar upp till 23 knop.
Område se11e: SO/1-5 knop, byar upp till 13 knop.
Område se11f: SO/0-7 knop, byar upp till 14 knop.
Område se11h: SO/0-10 knop, byar upp till 14 knop.
Område se11d: SO-S/3-13 knop, byar upp till 21 knop.
Område se11c: SO/4-12 knop, byar upp till 15 knop.

19-21UTC: Område se11b: SO/5-16 knop, byar upp till 19 knop.
Område se11h: O-SO/0-10 knop, byar upp till 11 knop.
Område se11c: SO/3-10 knop, byar upp till 14 knop.
Område se11a: SO/3-17 knop, byar upp till 21 knop.
Område se11d: SO/2-12 knop, byar upp till 20 knop.
Område se11g: O-SO/3-9 knop.
Område se11i: O-SO/1-12 knop, byar upp till 15 knop.
Område se11f: O-SO/0-5 knop.
Område se11e: O/0-5 knop, byar upp till 12 knop.


Genomsnittlig vind och temperatur för området

2000ft:
13-15UTC: 180/19kt +4.
15-19UTC: 180/19kt +5.
19-21UTC: 180/18kt +6.

FL050:
13-15UTC: 190/27kt +3.
15-17UTC: 200/21kt +3.
17-19UTC: 200/18kt +4.
19-21UTC: 190/18kt +4.

FL100:
13-15UTC: 190/30kt -6.
15-17UTC: 200/27kt -6.
17-19UTC: 200/26kt -6.
19-21UTC: 190/25kt -6.

Lägsta QNH
13-15UTC: I hela området: 1004 hPa
15-19UTC: I hela området: 1005 hPa
19-21UTC: I hela området: 1006 hPa

OBS! endast utbredd måttlig eller svår isbildning och turbulens prognostiseras i LLF.
Avsaknad av isbildning och turbulens i prognosen utesluter inte förekomst av lätt isbildning och turbulens.
För indikation på lätt isbildning, var vänlig kontrollera om prognosen för molntopp ligger högre än nollgradersisotermen.
Förekomst av TCU eller CB medför alltid en risk för måttlig eller svår isbildning och turbulens även om det inte framgår explicit av prognosen.








Spotting

Hur fungerar spotthjälpen och Vindkartan?

Markvind är ca 2-4 m/s med byar på 9 m/s.
Vind på 600 m ca 10 m/s.
Vind på 1500 m ca 14 m/s.
Vind på 3000 m ca 15 m/s.
KalleDavid flyger ca 28 m/s över marken på finalen.
Du driver ca 694 m bakåt i frifall. (926 m)
Lämplig spot är 14 sekunder eller 396 m efter gropen.
(23 s eller 651 m)
För små grupper eller ensamhoppare bör man vänta 5-8 sekunder mellan grupperna.
För större grupper bör man vänta 11-13 sekunder mellan grupperna.


Vindkartan

Senast uppdaterad 14:03




All data kommer från LFV.se